Time;durP1;ratioP1;P1;durP2;ratioP2;P2;SDS_P1;SDS_P2;PMS_P1;PMS_P2;Temp;Humidity;BMP_temperature;BMP_pressure;BME280_temperature;BME280_humidity;BME280_pressure;Samples;Min_cycle;Max_cycle;Signal;HPM_P1;HPM_P2
2021/01/09 08:30:16;;;;;;;82.03;42.97;;;;;;;;;;5417869;22;20525;-88
2021/01/09 08:32:42;;;;;;;109.33;55.60;;;;;;;;;;5029419;28;20474;-86
2021/01/09 08:35:08;;;;;;;140.73;66.90;;;;;;;;;;5033040;28;20673;-86
2021/01/09 08:37:35;;;;;;;143.27;70.43;;;;;;;;;;5032788;28;20169;-86
2021/01/09 08:40:16;;;;;;;180.13;85.00;;;;;;;;;;5015748;28;20172;-86
2021/01/09 08:43:12;;;;;;;87.43;44.60;;;;;;;;;;5023555;28;20176;-85
2021/01/09 08:45:37;;;;;;;61.30;34.33;;;;;;;;;;5007102;28;20665;-85
2021/01/09 08:48:03;;;;;;;102.10;52.13;;;;;;;;;;5033128;28;20193;-85
2021/01/09 08:50:30;;;;;;;73.77;43.87;;;;;;;;;;5032680;28;20670;-85
2021/01/09 08:52:58;;;;;;;81.27;42.23;;;;;;;;;;5029786;28;20220;-86
2021/01/09 08:55:24;;;;;;;84.53;43.47;;;;;;;;;;5048553;28;20172;-85
2021/01/09 08:57:49;;;;;;;58.03;32.90;;;;;;;;;;5051073;28;20183;-85
2021/01/09 09:00:15;;;;;;;61.90;34.50;;;;;;;;;;5041433;28;20169;-85
2021/01/09 09:02:41;;;;;;;94.67;48.70;;;;;;;;;;5033440;28;20179;-85
2021/01/09 09:05:09;;;;;;;57.77;33.63;;;;;;;;;;5032895;28;20254;-85
2021/01/09 09:07:35;;;;;;;79.73;40.77;;;;;;;;;;5035083;28;20179;-84
2021/01/09 09:10:02;;;;;;;81.77;46.90;;;;;;;;;;5036750;28;20199;-84
2021/01/09 09:12:27;;;;;;;59.37;36.17;;;;;;;;;;5036352;28;20181;-85
2021/01/09 09:15:00;;;;;;;61.00;35.27;;;;;;;;;;5036270;28;20688;-84
2021/01/09 09:17:25;;;;;;;51.37;31.90;;;;;;;;;;5036323;28;20165;-85
2021/01/09 09:19:50;;;;;;;65.37;39.50;;;;;;;;;;5036536;28;20165;-85
2021/01/09 09:22:26;;;;;;;58.90;38.23;;;;;;;;;;5018480;28;20615;-86
2021/01/09 09:24:51;;;;;;;58.97;34.77;;;;;;;;;;5036542;28;20211;-85
2021/01/09 09:27:30;;;;;;;70.33;40.63;;;;;;;;;;5018551;28;20180;-85
2021/01/09 09:30:11;;;;;;;67.50;39.20;;;;;;;;;;5038851;28;20625;-85
2021/01/09 09:32:37;;;;;;;52.77;31.93;;;;;;;;;;5056169;28;20207;-85
2021/01/09 09:35:26;;;;;;;52.37;30.80;;;;;;;;;;5056222;28;20247;-85
2021/01/09 09:37:52;;;;;;;54.33;32.80;;;;;;;;;;5047518;28;20218;-85
2021/01/09 09:40:28;;;;;;;51.80;31.57;;;;;;;;;;5056703;28;20176;-85
2021/01/09 09:42:53;;;;;;;57.73;32.83;;;;;;;;;;5055407;28;20262;-85
2021/01/09 09:45:19;;;;;;;59.40;36.47;;;;;;;;;;5056027;28;20203;-85
2021/01/09 09:47:46;;;;;;;61.60;35.57;;;;;;;;;;5055940;28;20172;-85
2021/01/09 09:50:12;;;;;;;71.67;42.67;;;;;;;;;;5054109;28;20238;-85
2021/01/09 09:52:37;;;;;;;80.40;48.53;;;;;;;;;;5055408;28;20164;-85
2021/01/09 09:55:04;;;;;;;66.00;39.83;;;;;;;;;;5054800;28;20172;-84
2021/01/09 09:57:29;;;;;;;58.87;34.17;;;;;;;;;;5056145;28;20172;-85
2021/01/09 10:00:08;;;;;;;68.13;38.20;;;;;;;;;;5055422;28;20309;-84
2021/01/09 10:02:33;;;;;;;56.83;33.47;;;;;;;;;;5055635;28;20172;-85
2021/01/09 10:04:58;;;;;;;58.73;32.97;;;;;;;;;;5037933;28;20633;-85
2021/01/09 10:07:24;;;;;;;63.20;36.90;;;;;;;;;;5055503;28;20168;-85
2021/01/09 10:09:50;;;;;;;80.90;49.03;;;;;;;;;;5055278;28;20196;-87
2021/01/09 10:12:15;;;;;;;147.60;72.97;;;;;;;;;;5055546;28;20184;-85
2021/01/09 10:14:41;;;;;;;69.03;38.87;;;;;;;;;;5037948;28;20176;-84
2021/01/09 10:17:06;;;;;;;73.20;43.53;;;;;;;;;;5055660;28;20168;-84
2021/01/09 10:19:31;;;;;;;64.90;38.90;;;;;;;;;;5053984;28;20537;-85
2021/01/09 10:21:57;;;;;;;75.83;47.27;;;;;;;;;;5055092;28;20176;-84
2021/01/09 10:24:22;;;;;;;58.07;32.93;;;;;;;;;;5054420;28;20286;-85
2021/01/09 10:26:47;;;;;;;68.00;40.70;;;;;;;;;;5052712;28;20180;-85
2021/01/09 10:29:14;;;;;;;74.00;43.70;;;;;;;;;;5055024;28;20200;-84
2021/01/09 10:31:40;;;;;;;70.10;38.53;;;;;;;;;;5020497;28;20293;-85
2021/01/09 10:34:06;;;;;;;67.67;38.73;;;;;;;;;;5054433;28;20573;-85
2021/01/09 10:36:32;;;;;;;87.90;44.00;;;;;;;;;;5055537;28;20172;-85
2021/01/09 10:38:57;;;;;;;59.23;34.17;;;;;;;;;;5054456;28;20214;-87
2021/01/09 10:41:23;;;;;;;71.23;39.83;;;;;;;;;;5054578;28;20203;-85
2021/01/09 10:43:49;;;;;;;110.97;55.17;;;;;;;;;;5055222;28;20203;-85
2021/01/09 10:46:18;;;;;;;97.93;48.80;;;;;;;;;;5054507;28;20202;-85
2021/01/09 10:48:43;;;;;;;65.70;36.93;;;;;;;;;;5054706;28;20172;-85
2021/01/09 10:51:12;;;;;;;61.43;35.43;;;;;;;;;;5054453;28;20172;-85
2021/01/09 10:53:38;;;;;;;60.97;37.80;;;;;;;;;;5054378;28;20184;-85
2021/01/09 10:56:03;;;;;;;63.10;37.77;;;;;;;;;;5053716;28;20179;-85
2021/01/09 10:58:40;;;;;;;;;;;;;;;;;;;;;
2021/01/09 11:01:06;;;;;;;57.43;33.57;;;;;;;;;;5055074;28;20175;-85
2021/01/09 11:03:32;;;;;;;70.90;40.73;;;;;;;;;;5052922;28;20264;-85
2021/01/09 11:05:58;;;;;;;47.77;30.50;;;;;;;;;;5052849;28;20168;-84
2021/01/09 11:08:24;;;;;;;48.90;29.73;;;;;;;;;;5052808;28;20175;-84
2021/01/09 11:10:49;;;;;;;60.50;34.60;;;;;;;;;;5052669;28;20203;-85
2021/01/09 11:13:14;;;;;;;50.97;30.03;;;;;;;;;;5052296;28;20207;-85
2021/01/09 11:15:43;;;;;;;63.70;37.20;;;;;;;;;;5052604;28;20171;-85
2021/01/09 11:18:10;;;;;;;68.80;34.80;;;;;;;;;;5052736;28;20176;-84
2021/01/09 11:20:35;;;;;;;82.93;40.87;;;;;;;;;;5051602;28;20180;-85
2021/01/09 11:23:00;;;;;;;73.13;37.57;;;;;;;;;;5051543;28;20176;-85
2021/01/09 11:25:25;;;;;;;75.87;39.30;;;;;;;;;;5049998;28;20270;-85
2021/01/09 11:27:51;;;;;;;74.63;41.03;;;;;;;;;;5051199;28;20176;-85
2021/01/09 11:30:16;;;;;;;78.57;38.70;;;;;;;;;;5051467;28;20262;-85
2021/01/09 11:32:41;;;;;;;97.80;50.90;;;;;;;;;;5053758;28;20175;-86
2021/01/09 11:35:07;;;;;;;106.03;51.00;;;;;;;;;;5052620;28;20187;-85
2021/01/09 11:37:32;;;;;;;102.43;53.83;;;;;;;;;;5052933;28;20250;-85
2021/01/09 11:39:58;;;;;;;94.33;50.17;;;;;;;;;;5051207;28;20183;-85
2021/01/09 11:42:23;;;;;;;65.33;38.70;;;;;;;;;;5052656;28;20252;-86
2021/01/09 11:44:48;;;;;;;58.63;36.27;;;;;;;;;;5061369;28;20187;-85
2021/01/09 11:47:14;;;;;;;65.57;39.47;;;;;;;;;;5053510;28;20627;-85
2021/01/09 11:49:39;;;;;;;58.87;34.80;;;;;;;;;;5030967;28;20204;-85
2021/01/09 11:52:05;;;;;;;78.07;41.33;;;;;;;;;;5013453;28;20538;-84
2021/01/09 11:54:30;;;;;;;62.00;38.27;;;;;;;;;;5030992;28;20164;-85
2021/01/09 11:56:56;;;;;;;62.43;37.47;;;;;;;;;;5031088;28;20590;-85
2021/01/09 11:59:21;;;;;;;59.47;33.70;;;;;;;;;;5031010;28;20172;-84
2021/01/09 12:01:46;;;;;;;71.07;38.80;;;;;;;;;;5031254;28;20177;-85
2021/01/09 12:04:12;;;;;;;55.03;31.50;;;;;;;;;;5031108;28;20176;-87
2021/01/09 12:06:37;;;;;;;74.13;44.47;;;;;;;;;;5030932;28;20177;-85
2021/01/09 12:09:02;;;;;;;92.97;48.27;;;;;;;;;;5013021;28;20255;-85
2021/01/09 12:11:37;;;;;;;65.47;37.67;;;;;;;;;;5047507;28;20518;-85
2021/01/09 12:14:02;;;;;;;59.63;36.87;;;;;;;;;;5050417;28;20160;-84
2021/01/09 12:16:31;;;;;;;57.97;34.67;;;;;;;;;;5034757;28;20186;-86
2021/01/09 12:18:58;;;;;;;56.63;32.70;;;;;;;;;;5051763;28;20249;-85
2021/01/09 12:21:23;;;;;;;60.30;34.80;;;;;;;;;;5051011;28;20702;-84
2021/01/09 12:23:49;;;;;;;106.03;57.20;;;;;;;;;;5049504;28;20290;-84
2021/01/09 12:26:17;;;;;;;60.57;35.57;;;;;;;;;;5050593;28;20210;-84
2021/01/09 12:28:43;;;;;;;63.50;36.30;;;;;;;;;;5050269;28;20191;-84
2021/01/09 12:31:08;;;;;;;52.67;33.33;;;;;;;;;;5050246;28;20235;-85
2021/01/09 12:33:34;;;;;;;52.83;31.00;;;;;;;;;;5050704;28;20274;-85
2021/01/09 12:35:59;;;;;;;53.57;31.47;;;;;;;;;;5055530;28;20178;-86
2021/01/09 12:38:24;;;;;;;51.43;29.03;;;;;;;;;;5052662;28;20171;-85
2021/01/09 12:40:49;;;;;;;68.37;40.63;;;;;;;;;;5072529;28;20175;-84
2021/01/09 12:43:15;;;;;;;56.73;32.47;;;;;;;;;;5077195;28;20167;-85
2021/01/09 12:45:40;;;;;;;66.87;39.17;;;;;;;;;;5060775;28;20167;-84
2021/01/09 12:48:05;;;;;;;64.87;35.13;;;;;;;;;;5058267;28;20559;-85
2021/01/09 12:50:30;;;;;;;73.60;40.10;;;;;;;;;;5055544;28;20231;-85
2021/01/09 12:52:56;;;;;;;85.50;48.77;;;;;;;;;;5056180;28;20174;-85
2021/01/09 12:55:21;;;;;;;90.53;58.63;;;;;;;;;;5055983;28;20227;-84
2021/01/09 12:57:47;;;;;;;60.00;36.10;;;;;;;;;;5054220;28;20238;-85
2021/01/09 13:00:12;;;;;;;64.70;37.40;;;;;;;;;;5055290;28;20174;-85
2021/01/09 13:02:38;;;;;;;78.87;42.00;;;;;;;;;;5055464;28;20221;-86
2021/01/09 13:05:03;;;;;;;58.87;34.33;;;;;;;;;;5036769;28;20168;-85
2021/01/09 13:07:29;;;;;;;49.63;28.20;;;;;;;;;;5055126;28;20176;-86
2021/01/09 13:09:54;;;;;;;50.57;29.00;;;;;;;;;;5037766;28;20287;-86
2021/01/09 13:12:19;;;;;;;62.50;36.77;;;;;;;;;;5055272;28;20170;-87
2021/01/09 13:14:44;;;;;;;80.37;49.73;;;;;;;;;;5053911;28;20629;-86
2021/01/09 13:17:12;;;;;;;81.53;48.40;;;;;;;;;;5035930;28;20217;-85
2021/01/09 13:19:37;;;;;;;77.73;38.87;;;;;;;;;;5054128;28;20180;-85
2021/01/09 13:22:03;;;;;;;64.90;34.43;;;;;;;;;;5053942;28;20312;-86
2021/01/09 13:24:29;;;;;;;58.53;33.60;;;;;;;;;;5053750;28;20258;-85
2021/01/09 13:26:55;;;;;;;62.77;38.83;;;;;;;;;;5053815;28;20180;-85
2021/01/09 13:29:20;;;;;;;122.00;72.77;;;;;;;;;;5053606;28;20204;-85
2021/01/09 13:31:46;;;;;;;60.97;36.73;;;;;;;;;;5053212;28;20231;-84
2021/01/09 13:34:11;;;;;;;49.77;29.87;;;;;;;;;;5053496;28;20514;-84
2021/01/09 13:36:38;;;;;;;55.83;31.63;;;;;;;;;;5053445;28;20653;-85
2021/01/09 13:39:04;;;;;;;84.40;51.27;;;;;;;;;;5053542;28;20175;-84
2021/01/09 13:41:29;;;;;;;55.77;32.13;;;;;;;;;;5054081;28;20175;-86
2021/01/09 13:43:54;;;;;;;65.10;34.27;;;;;;;;;;5055246;28;20164;-86
2021/01/09 13:46:21;;;;;;;61.13;34.13;;;;;;;;;;5055145;28;20631;-86
2021/01/09 13:48:46;;;;;;;51.50;28.63;;;;;;;;;;5056740;28;20183;-85
2021/01/09 13:51:17;;;;;;;51.03;27.53;;;;;;;;;;5062779;28;20182;-86
2021/01/09 13:53:43;;;;;;;58.63;32.63;;;;;;;;;;5064259;28;20164;-85
2021/01/09 13:56:08;;;;;;;73.93;38.60;;;;;;;;;;5061037;28;20172;-85
2021/01/09 13:58:34;;;;;;;50.03;27.70;;;;;;;;;;5058172;28;20288;-86
2021/01/09 14:00:59;;;;;;;54.10;28.60;;;;;;;;;;5063274;28;20175;-86
2021/01/09 14:03:24;;;;;;;50.27;29.33;;;;;;;;;;5026329;28;20172;-86
2021/01/09 14:05:49;;;;;;;57.63;31.63;;;;;;;;;;5053485;28;20172;-86
2021/01/09 14:08:15;;;;;;;47.20;27.70;;;;;;;;;;5045744;28;20187;-86
2021/01/09 14:10:40;;;;;;;51.97;29.97;;;;;;;;;;5062084;28;20246;-86
2021/01/09 14:13:05;;;;;;;57.53;32.30;;;;;;;;;;5061999;28;20186;-87
2021/01/09 14:15:30;;;;;;;63.67;32.70;;;;;;;;;;5063734;28;20488;-87
2021/01/09 14:17:56;;;;;;;66.40;35.40;;;;;;;;;;5062345;28;20175;-86
2021/01/09 14:20:21;;;;;;;60.93;32.10;;;;;;;;;;5062243;28;20171;-86
2021/01/09 14:22:46;;;;;;;59.23;32.33;;;;;;;;;;5064171;28;20592;-87
2021/01/09 14:25:12;;;;;;;56.93;31.07;;;;;;;;;;5062238;28;20176;-87
2021/01/09 14:27:37;;;;;;;64.53;35.80;;;;;;;;;;5062944;28;20617;-87
2021/01/09 14:30:02;;;;;;;58.97;33.57;;;;;;;;;;5026191;28;20216;-86
2021/01/09 14:32:30;;;;;;;59.00;33.77;;;;;;;;;;5041232;28;20274;-87
2021/01/09 14:34:55;;;;;;;81.90;41.47;;;;;;;;;;5061491;28;20879;-86
2021/01/09 14:37:20;;;;;;;85.77;43.30;;;;;;;;;;5066293;28;20210;-86
2021/01/09 14:39:46;;;;;;;85.70;42.40;;;;;;;;;;5072892;28;20179;-86
2021/01/09 14:42:12;;;;;;;76.47;39.27;;;;;;;;;;5072585;28;20171;-86
2021/01/09 14:44:37;;;;;;;71.53;37.83;;;;;;;;;;5054761;28;20183;-86
2021/01/09 14:47:03;;;;;;;85.10;43.43;;;;;;;;;;5072774;28;20270;-86
2021/01/09 14:49:28;;;;;;;68.97;38.93;;;;;;;;;;5072702;28;20245;-87
2021/01/09 14:51:59;;;;;;;67.83;35.13;;;;;;;;;;5072246;28;20669;-86
2021/01/09 14:54:24;;;;;;;59.87;33.57;;;;;;;;;;5072464;28;20161;-86
2021/01/09 14:56:50;;;;;;;80.57;44.80;;;;;;;;;;5051903;28;20169;-86
2021/01/09 14:59:15;;;;;;;86.73;44.13;;;;;;;;;;5052280;28;20550;-88
2021/01/09 15:01:41;;;;;;;58.57;32.30;;;;;;;;;;5034581;28;20199;-87
2021/01/09 15:04:06;;;;;;;66.57;36.60;;;;;;;;;;5052289;28;20213;-88
2021/01/09 15:06:31;;;;;;;94.93;48.20;;;;;;;;;;5053750;28;20541;-88
2021/01/09 15:08:56;;;;;;;173.60;82.47;;;;;;;;;;5060410;28;20221;-88
2021/01/09 15:11:22;;;;;;;82.37;44.37;;;;;;;;;;5066362;28;20170;-88
2021/01/09 15:13:48;;;;;;;88.13;46.90;;;;;;;;;;5072323;28;20305;-87
2021/01/09 15:16:15;;;;;;;78.60;42.20;;;;;;;;;;5066264;28;20172;-88
2021/01/09 15:19:12;;;;;;;190.87;100.00;;;;;;;;;;5060360;28;20172;-88
2021/01/09 15:21:42;;;;;;;315.57;151.97;;;;;;;;;;5053532;28;20626;-87
2021/01/09 15:24:07;;;;;;;323.83;154.97;;;;;;;;;;5059682;28;20260;-87
2021/01/09 15:26:34;;;;;;;153.13;75.27;;;;;;;;;;5059158;28;20262;-87
2021/01/09 15:29:00;;;;;;;103.07;51.83;;;;;;;;;;5062153;28;20226;-86
2021/01/09 15:31:25;;;;;;;88.10;40.00;;;;;;;;;;5032325;28;20242;-87
2021/01/09 15:33:51;;;;;;;76.90;37.43;;;;;;;;;;5052504;28;20184;-87
2021/01/09 15:36:16;;;;;;;59.70;31.87;;;;;;;;;;5058028;28;20175;-86
2021/01/09 15:38:41;;;;;;;104.20;50.30;;;;;;;;;;5058177;28;20176;-87
2021/01/09 15:41:16;;;;;;;106.53;50.80;;;;;;;;;;5027982;28;20691;-87
2021/01/09 15:43:41;;;;;;;62.13;33.03;;;;;;;;;;5045055;28;20170;-87
2021/01/09 15:46:06;;;;;;;62.23;33.10;;;;;;;;;;5024784;28;20176;-87
2021/01/09 15:48:31;;;;;;;68.17;37.10;;;;;;;;;;5057938;28;20541;-88
2021/01/09 15:51:04;;;;;;;59.20;31.13;;;;;;;;;;5070405;28;20211;-88
2021/01/09 15:53:32;;;;;;;54.77;29.77;;;;;;;;;;5071140;28;20290;-88
2021/01/09 15:55:58;;;;;;;72.10;37.53;;;;;;;;;;5057309;28;20250;-87
2021/01/09 15:58:23;;;;;;;83.03;41.50;;;;;;;;;;5067155;28;20159;-87
2021/01/09 16:00:48;;;;;;;76.73;40.30;;;;;;;;;;5051497;28;20202;-88
2021/01/09 16:03:14;;;;;;;67.57;34.87;;;;;;;;;;5069481;28;20175;-87
2021/01/09 16:05:39;;;;;;;69.30;35.77;;;;;;;;;;5063923;28;20509;-87
2021/01/09 16:08:04;;;;;;;66.17;33.90;;;;;;;;;;5051731;28;20547;-88
2021/01/09 16:10:30;;;;;;;77.53;40.43;;;;;;;;;;5050080;28;20247;-87
2021/01/09 16:12:55;;;;;;;76.97;38.17;;;;;;;;;;5051167;28;20194;-86
2021/01/09 16:15:20;;;;;;;55.40;30.87;;;;;;;;;;5050393;28;20233;-86
2021/01/09 16:17:45;;;;;;;55.30;29.90;;;;;;;;;;5053260;28;20176;-86
2021/01/09 16:20:11;;;;;;;58.13;31.13;;;;;;;;;;5054834;28;20226;-86
2021/01/09 16:22:36;;;;;;;53.43;29.23;;;;;;;;;;5055451;28;20176;-86
2021/01/09 16:25:01;;;;;;;67.90;33.33;;;;;;;;;;5054824;28;20182;-86
2021/01/09 16:27:28;;;;;;;51.07;26.33;;;;;;;;;;5055379;28;20241;-87
2021/01/09 16:29:53;;;;;;;58.33;30.50;;;;;;;;;;5055073;28;20227;-86
2021/01/09 16:32:19;;;;;;;55.63;30.17;;;;;;;;;;5054416;28;20269;-85
2021/01/09 16:34:44;;;;;;;54.53;31.50;;;;;;;;;;5054140;28;20187;-86
2021/01/09 16:37:10;;;;;;;54.87;28.80;;;;;;;;;;5055364;28;20168;-85
2021/01/09 16:39:35;;;;;;;55.40;29.20;;;;;;;;;;5036058;28;20199;-86
2021/01/09 16:42:03;;;;;;;48.73;25.90;;;;;;;;;;5036107;28;20224;-86
2021/01/09 16:44:29;;;;;;;53.50;29.73;;;;;;;;;;5036472;28;20180;-86
2021/01/09 16:46:57;;;;;;;52.93;27.13;;;;;;;;;;5050907;28;20184;-87
2021/01/09 16:49:22;;;;;;;58.10;31.47;;;;;;;;;;5035962;28;20738;-86
2021/01/09 16:51:47;;;;;;;43.30;24.63;;;;;;;;;;5035761;28;20314;-86
2021/01/09 16:54:13;;;;;;;48.07;25.73;;;;;;;;;;5041918;28;20176;-87
2021/01/09 16:56:40;;;;;;;53.37;30.83;;;;;;;;;;5055704;28;20176;-88
2021/01/09 16:59:06;;;;;;;59.83;32.27;;;;;;;;;;5055781;28;20183;-87
2021/01/09 17:01:31;;;;;;;40.37;22.17;;;;;;;;;;5054074;28;20205;-87
2021/01/09 17:03:57;;;;;;;52.00;28.23;;;;;;;;;;5054054;28;20180;-86
2021/01/09 17:06:22;;;;;;;41.93;23.27;;;;;;;;;;5052998;28;20184;-87
2021/01/09 17:08:47;;;;;;;56.30;29.57;;;;;;;;;;5054292;28;20176;-87
2021/01/09 17:11:13;;;;;;;50.47;28.57;;;;;;;;;;5054169;28;20211;-86
2021/01/09 17:13:38;;;;;;;76.50;38.37;;;;;;;;;;5053528;28;20210;-86
2021/01/09 17:16:03;;;;;;;42.63;25.17;;;;;;;;;;5053811;28;20179;-86
2021/01/09 17:18:29;;;;;;;81.87;38.93;;;;;;;;;;5053675;28;20533;-86
2021/01/09 17:20:54;;;;;;;53.90;29.13;;;;;;;;;;5054016;28;20178;-86
2021/01/09 17:23:19;;;;;;;45.90;24.70;;;;;;;;;;5053812;28;20199;-86
2021/01/09 17:25:50;;;;;;;72.27;31.87;;;;;;;;;;5053490;28;20168;-86
2021/01/09 17:28:16;;;;;;;42.17;23.60;;;;;;;;;;5053585;28;20156;-87
2021/01/09 17:30:43;;;;;;;36.23;21.53;;;;;;;;;;5063194;28;20215;-86
2021/01/09 17:33:08;;;;;;;45.53;24.73;;;;;;;;;;5073640;28;20166;-86
2021/01/09 17:35:34;;;;;;;35.97;21.77;;;;;;;;;;5073298;28;20282;-86
2021/01/09 17:37:59;;;;;;;41.27;22.90;;;;;;;;;;5073360;28;20221;-87
2021/01/09 17:40:25;;;;;;;41.93;23.93;;;;;;;;;;5055585;28;20187;-86
2021/01/09 17:42:50;;;;;;;48.20;27.27;;;;;;;;;;5073710;28;20221;-86
2021/01/09 17:45:15;;;;;;;36.27;20.53;;;;;;;;;;5073184;28;20266;-86
2021/01/09 17:47:40;;;;;;;32.90;19.37;;;;;;;;;;5073428;28;20228;-86
2021/01/09 17:50:06;;;;;;;31.70;19.67;;;;;;;;;;5072954;28;20222;-85
2021/01/09 17:52:31;;;;;;;30.10;17.80;;;;;;;;;;5073274;28;20607;-86
2021/01/09 17:54:57;;;;;;;35.33;20.87;;;;;;;;;;5073268;28;20202;-86
2021/01/09 17:57:22;;;;;;;34.97;20.17;;;;;;;;;;5053415;28;20180;-87
2021/01/09 17:59:47;;;;;;;33.87;20.70;;;;;;;;;;5035064;28;20234;-85
2021/01/09 18:02:12;;;;;;;40.93;22.70;;;;;;;;;;5053042;28;20533;-88
2021/01/09 18:04:38;;;;;;;33.07;18.83;;;;;;;;;;5034986;28;20179;-87
2021/01/09 18:07:03;;;;;;;49.43;26.00;;;;;;;;;;5053416;28;20172;-87
2021/01/09 18:09:28;;;;;;;82.83;34.33;;;;;;;;;;5053154;28;20277;-87
2021/01/09 18:11:56;;;;;;;46.40;24.93;;;;;;;;;;5035255;28;20180;-87
2021/01/09 18:14:21;;;;;;;43.57;23.30;;;;;;;;;;5035402;28;20263;-87
2021/01/09 18:16:46;;;;;;;38.43;22.40;;;;;;;;;;5052859;28;20267;-87
2021/01/09 18:19:12;;;;;;;33.83;20.00;;;;;;;;;;5058484;28;20187;-87
2021/01/09 18:21:39;;;;;;;35.70;21.73;;;;;;;;;;5068167;28;20203;-86
2021/01/09 18:24:04;;;;;;;36.50;20.70;;;;;;;;;;5052967;28;20199;-86
2021/01/09 18:26:31;;;;;;;32.27;20.97;;;;;;;;;;5034160;28;20624;-86
2021/01/09 18:28:57;;;;;;;34.73;19.83;;;;;;;;;;5053017;28;20278;-88
2021/01/09 18:31:23;;;;;;;36.00;21.50;;;;;;;;;;5062559;28;20816;-87
2021/01/09 18:33:48;;;;;;;37.93;22.43;;;;;;;;;;5072494;28;20246;-87
2021/01/09 18:36:18;;;;;;;36.43;21.40;;;;;;;;;;5072315;28;20266;-87
2021/01/09 18:38:44;;;;;;;33.97;20.37;;;;;;;;;;5072711;28;20176;-87
2021/01/09 18:41:09;;;;;;;33.83;20.00;;;;;;;;;;5071334;28;20185;-87
2021/01/09 18:43:34;;;;;;;33.83;20.17;;;;;;;;;;5072339;28;20648;-87
2021/01/09 18:46:00;;;;;;;30.30;19.47;;;;;;;;;;5071979;28;20232;-87
2021/01/09 18:48:25;;;;;;;32.63;20.00;;;;;;;;;;5072172;28;20171;-87
2021/01/09 18:50:54;;;;;;;32.77;19.53;;;;;;;;;;5054711;28;20211;-86
2021/01/09 18:53:19;;;;;;;32.43;19.00;;;;;;;;;;5052557;28;20180;-85
2021/01/09 18:55:44;;;;;;;32.63;21.00;;;;;;;;;;5051946;28;20184;-87
2021/01/09 18:58:10;;;;;;;35.97;22.37;;;;;;;;;;5052291;28;20593;-87
2021/01/09 19:00:35;;;;;;;46.50;27.37;;;;;;;;;;5051933;28;20183;-87
2021/01/09 19:03:00;;;;;;;45.73;27.60;;;;;;;;;;5051969;28;20274;-87
2021/01/09 19:05:25;;;;;;;43.03;25.10;;;;;;;;;;5052314;28;20237;-86
2021/01/09 19:07:51;;;;;;;38.27;22.60;;;;;;;;;;5052110;28;20238;-86
2021/01/09 19:10:17;;;;;;;45.70;26.83;;;;;;;;;;5052015;28;20209;-86
2021/01/09 19:12:42;;;;;;;44.93;27.03;;;;;;;;;;5051902;28;20207;-87
2021/01/09 19:15:08;;;;;;;44.73;24.13;;;;;;;;;;5050755;28;20214;-86
2021/01/09 19:17:34;;;;;;;53.47;28.17;;;;;;;;;;5051146;28;20184;-87
2021/01/09 19:19:59;;;;;;;44.17;24.03;;;;;;;;;;5051907;28;20188;-86
2021/01/09 19:22:25;;;;;;;36.13;22.47;;;;;;;;;;5051637;28;20264;-87
2021/01/09 19:24:50;;;;;;;36.70;22.80;;;;;;;;;;5033803;28;20189;-86
2021/01/09 19:27:19;;;;;;;42.90;25.60;;;;;;;;;;5050130;28;20183;-85
2021/01/09 19:29:44;;;;;;;48.73;26.57;;;;;;;;;;5051378;28;20789;-87
2021/01/09 19:32:09;;;;;;;45.47;27.17;;;;;;;;;;5033433;28;20240;-86
2021/01/09 19:34:35;;;;;;;109.57;51.70;;;;;;;;;;5051920;28;20175;-86
2021/01/09 19:37:00;;;;;;;42.77;26.73;;;;;;;;;;5054648;28;20610;-86
2021/01/09 19:39:25;;;;;;;36.07;22.83;;;;;;;;;;5060072;28;20708;-86
2021/01/09 19:41:51;;;;;;;34.77;21.47;;;;;;;;;;5059815;28;20178;-86
2021/01/09 19:44:17;;;;;;;42.57;24.37;;;;;;;;;;5024489;28;20262;-86
2021/01/09 19:46:44;;;;;;;41.33;24.20;;;;;;;;;;5061396;28;20167;-87
2021/01/09 19:49:11;;;;;;;34.50;21.37;;;;;;;;;;5014812;28;20188;-87
2021/01/09 19:51:36;;;;;;;37.90;22.20;;;;;;;;;;5048920;28;20258;-87
2021/01/09 19:54:06;;;;;;;38.00;24.63;;;;;;;;;;5051167;28;20322;-86
2021/01/09 19:56:31;;;;;;;36.50;23.23;;;;;;;;;;5050325;28;20228;-86
2021/01/09 19:58:56;;;;;;;37.63;24.47;;;;;;;;;;5055879;28;20275;-87
2021/01/09 20:01:22;;;;;;;30.47;20.13;;;;;;;;;;5056060;28;20635;-87
2021/01/09 20:03:47;;;;;;;29.47;19.30;;;;;;;;;;5053307;28;20190;-87
2021/01/09 20:06:13;;;;;;;34.70;22.93;;;;;;;;;;5070955;28;20182;-87
2021/01/09 20:08:38;;;;;;;47.87;25.83;;;;;;;;;;5063316;28;20557;-87
2021/01/09 20:11:04;;;;;;;56.73;33.23;;;;;;;;;;5050968;28;20220;-86
2021/01/09 20:13:32;;;;;;;38.57;24.17;;;;;;;;;;5027347;28;20223;-86
2021/01/09 20:15:58;;;;;;;30.50;20.57;;;;;;;;;;5049353;28;20175;-86
2021/01/09 20:18:23;;;;;;;33.97;21.43;;;;;;;;;;5055075;28;20278;-86
2021/01/09 20:20:48;;;;;;;40.03;23.37;;;;;;;;;;5058348;28;20250;-87
2021/01/09 20:23:14;;;;;;;39.13;23.83;;;;;;;;;;5025909;28;20188;-86
2021/01/09 20:25:39;;;;;;;40.47;23.70;;;;;;;;;;5054813;28;20194;-86
2021/01/09 20:28:04;;;;;;;34.77;20.57;;;;;;;;;;5045396;28;20189;-86
2021/01/09 20:30:30;;;;;;;35.53;22.73;;;;;;;;;;5043239;28;20311;-86
2021/01/09 20:32:55;;;;;;;36.60;23.63;;;;;;;;;;5031253;28;20161;-87
2021/01/09 20:35:20;;;;;;;39.90;25.73;;;;;;;;;;5031382;28;20200;-87
2021/01/09 20:37:45;;;;;;;41.00;24.33;;;;;;;;;;5030693;28;20177;-86
2021/01/09 20:40:11;;;;;;;33.57;21.70;;;;;;;;;;5032409;28;20169;-86
2021/01/09 20:42:39;;;;;;;33.13;20.13;;;;;;;;;;5050095;28;20670;-86
2021/01/09 20:45:06;;;;;;;29.80;19.80;;;;;;;;;;5047304;28;20180;-86
2021/01/09 20:47:36;;;;;;;28.77;18.10;;;;;;;;;;5049437;28;20176;-87
2021/01/09 20:50:02;;;;;;;31.43;19.43;;;;;;;;;;5052827;28;20234;-86
2021/01/09 20:52:27;;;;;;;29.33;20.07;;;;;;;;;;5052573;28;20258;-86
2021/01/09 20:54:52;;;;;;;30.90;20.33;;;;;;;;;;5050180;28;20525;-86
2021/01/09 20:57:19;;;;;;;33.90;20.87;;;;;;;;;;5049926;28;20172;-86
2021/01/09 20:59:44;;;;;;;31.63;19.73;;;;;;;;;;5050306;28;20635;-86
2021/01/09 21:02:10;;;;;;;31.20;18.93;;;;;;;;;;5040346;28;20259;-87
2021/01/09 21:04:35;;;;;;;29.80;19.27;;;;;;;;;;5035088;28;20542;-86
2021/01/09 21:07:01;;;;;;;27.80;17.87;;;;;;;;;;5054087;28;20172;-85
2021/01/09 21:09:27;;;;;;;28.30;17.53;;;;;;;;;;5036149;28;20211;-86
2021/01/09 21:11:52;;;;;;;29.53;19.70;;;;;;;;;;5032971;28;20170;-86
2021/01/09 21:14:18;;;;;;;100.00;51.17;;;;;;;;;;5053744;28;20586;-86
2021/01/09 21:16:46;;;;;;;49.03;27.50;;;;;;;;;;5053762;28;20168;-86
2021/01/09 21:19:11;;;;;;;32.20;20.10;;;;;;;;;;5053329;28;20615;-86
2021/01/09 21:21:37;;;;;;;36.83;21.47;;;;;;;;;;5053373;28;20174;-87
2021/01/09 21:24:02;;;;;;;30.70;18.93;;;;;;;;;;5054035;28;20171;-86
2021/01/09 21:26:27;;;;;;;51.17;26.33;;;;;;;;;;5036058;28;20290;-86
2021/01/09 21:28:52;;;;;;;53.47;28.07;;;;;;;;;;5053447;28;20179;-86
2021/01/09 21:31:19;;;;;;;107.37;46.93;;;;;;;;;;5061351;28;20681;-86
2021/01/09 21:33:44;;;;;;;109.53;48.00;;;;;;;;;;5073770;28;20217;-87
2021/01/09 21:36:10;;;;;;;60.87;31.90;;;;;;;;;;5073684;28;20171;-87
2021/01/09 21:38:37;;;;;;;56.57;28.50;;;;;;;;;;5057238;28;20267;-87
2021/01/09 21:41:02;;;;;;;61.60;30.77;;;;;;;;;;5053817;28;20575;-87
2021/01/09 21:43:27;;;;;;;79.87;35.77;;;;;;;;;;5053164;28;20185;-87
2021/01/09 21:45:52;;;;;;;53.87;26.63;;;;;;;;;;5053836;28;20165;-89
2021/01/09 21:48:18;;;;;;;58.50;30.33;;;;;;;;;;5052805;28;20184;-86
2021/01/09 21:50:43;;;;;;;64.40;32.60;;;;;;;;;;5053246;28;20581;-86
2021/01/09 21:53:09;;;;;;;44.67;26.97;;;;;;;;;;5063871;28;20555;-85
2021/01/09 21:55:34;;;;;;;71.73;35.70;;;;;;;;;;5072127;28;20178;-85
2021/01/09 21:57:59;;;;;;;52.67;29.63;;;;;;;;;;5072544;28;20201;-85
2021/01/09 22:00:27;;;;;;;46.00;27.33;;;;;;;;;;5072277;28;20642;-85
2021/01/09 22:02:56;;;;;;;45.60;26.63;;;;;;;;;;5071216;28;20202;-85
2021/01/09 22:05:22;;;;;;;44.37;26.33;;;;;;;;;;5072170;28;20212;-86
2021/01/09 22:07:47;;;;;;;52.17;28.47;;;;;;;;;;5071924;28;20183;-85
2021/01/09 22:10:14;;;;;;;49.23;26.70;;;;;;;;;;5071961;28;20650;-86
2021/01/09 22:12:46;;;;;;;76.90;36.63;;;;;;;;;;5073585;28;20651;-85
2021/01/09 22:15:11;;;;;;;64.43;32.60;;;;;;;;;;5073260;28;20172;-86
2021/01/09 22:17:37;;;;;;;51.53;27.57;;;;;;;;;;5072061;28;20679;-86
2021/01/09 22:20:03;;;;;;;53.73;30.07;;;;;;;;;;5071905;28;20183;-85
2021/01/09 22:22:28;;;;;;;58.87;31.63;;;;;;;;;;5071788;28;20171;-85
2021/01/09 22:24:53;;;;;;;50.80;27.53;;;;;;;;;;5065884;28;20214;-86
2021/01/09 22:27:18;;;;;;;55.23;28.30;;;;;;;;;;5045824;28;20638;-85
2021/01/09 22:29:44;;;;;;;48.23;26.77;;;;;;;;;;5057809;28;20200;-85
2021/01/09 22:32:09;;;;;;;54.63;30.87;;;;;;;;;;5058746;28;20227;-85
2021/01/09 22:34:35;;;;;;;40.00;23.53;;;;;;;;;;5060431;28;20164;-85
2021/01/09 22:37:00;;;;;;;41.67;24.43;;;;;;;;;;5057810;28;20200;-84
2021/01/09 22:39:25;;;;;;;37.13;23.20;;;;;;;;;;5048975;28;20189;-84